Dale City, VA

6:54 PM EST on January 23, 2017 (GMT -0500)
Holly | | Change Station
Active Advisory: Small Craft Advisory

Elev 285 ft 38.66 °N, 77.30 °W | Updated 5 seconds ago

Overcast
Overcast
38.7 °F
Feels Like 39 °F
N
1.0
Wind Variable Wind from WNW

Today
High -- | Low -- °F
--% Chance of Precip.
Yesterday
High -- | Low -- °F
Precip. -- in
Pressure 29.47 in
Visibility 9.0 miles
Clouds Mostly Cloudy 900 ft
Overcast 1500 ft
Windchill 39 °F
Dew Point 38 °F
Humidity 96%
Rainfall 0.93 in
Snow Depth Not available.
7:21 AM 5:21 PM
Waning Crescent, 15% visible
SPECI KDAA 232341Z AUTO 02008KT 350V050 9SM R32/5500FT BKN009 OVC015 04/03 A2947 RMK AO2 UPB14E16
Pressure 29.47 in
Visibility 9.0 miles
Clouds Mostly Cloudy 900 ft
Overcast 1500 ft
Windchill 39 °F
Dew Point 38 °F
Humidity 96%
Rainfall 0.93 in
Snow Depth Not available.
7:21 AM 5:21 PM
Waning Crescent, 15% visible
SPECI KDAA 232341Z AUTO 02008KT 350V050 9SM R32/5500FT BKN009 OVC015 04/03 A2947 RMK AO2 UPB14E16

Get Your Daily Forecast Email!

Thanks for signing up!

Be on the lookout for a verification email in your inbox.

You'll start receiving the daily forecast at 8 AM.

×

10-Day Weather Forecast

Almanac

Astronomy

Jan. 23, 2017 Rise Set
Actual Time
Civil Twilight
Nautical Twilight
Astronomical Twilight
Moon
Length of Visible Light
Length of Day
Tomorrow will be .
, % of the Moon is Illuminated

Today's Extremes

State Highs State Lows

Community

WunderPhotos

Upload Photos

1,962,540 photos uploaded!

WunderBlog® & News

Nearby

Air Quality

  Air Quality AQ Index Pollutant
Not available.

Snow Depth

Station Depth Elevation

Earthquake Activity

City Distance Mag. Time & Date
Minimum magnitude displayed is 2.5.

Coastal Water Temperatures

Place Temperature

Stations

Nearby Weather Stations

Station Location Temp. Windchill Dew Point Humidity Wind Precip. Elev Updated Type
                   

Watches & Warnings

Small Craft Advisory
Issued: 5:52 PM EST Jan. 23, 2017 – National Weather Service

... Small Craft Advisory remains in effect until 6 PM EST
Tuesday...

* winds... 18 to 33 knots within the Small Craft Advisory.

Precautionary/preparedness actions...

A Small Craft Advisory means winds of 18 to 33 knots are imminent
or occurring. Boaters operating smaller vessels should avoid
navigating in these conditions.



Jackson